Time;durP1;ratioP1;P1;durP2;ratioP2;P2;SDS_P1;SDS_P2;PMS_P1;PMS_P2;Temp;Humidity;BMP_temperature;BMP_pressure;BME280_temperature;BME280_humidity;BME280_pressure;Samples;Min_cycle;Max_cycle;Signal;HPM_P1;HPM_P2
2023/09/20 00:00:37;;;;;;;1.97;1.37;;;;;;;15.04;92.80;149862.59;4920870;28;20244;-60
2023/09/20 00:03:04;;;;;;;1.93;1.20;;;;;;;15.18;89.67;149895.06;4923304;28;20237;-59
2023/09/20 00:05:39;;;;;;;2.27;1.13;;;;;;;15.12;91.54;149881.31;4921098;28;20699;-60
2023/09/20 00:08:06;;;;;;;6.10;1.50;;;;;;;15.15;93.63;149887.56;4892509;28;21250;-60
2023/09/20 00:10:37;;;;;;;3.70;1.27;;;;;;;15.23;89.02;149907.56;4920426;28;20789;-60
2023/09/20 00:13:04;;;;;;;4.60;1.67;;;;;;;15.18;90.44;149895.06;4923689;28;20784;-60
2023/09/20 00:15:57;;;;;;;4.87;1.57;;;;;;;15.34;90.51;149933.78;4920708;28;20254;-60
2023/09/20 00:18:24;;;;;;;1.83;1.30;;;;;;;15.32;90.52;149930.03;4919303;28;20258;-60
2023/09/20 00:20:51;;;;;;;4.43;1.40;;;;;;;15.20;90.83;149900.06;4923186;28;20304;-60
2023/09/20 00:23:21;;;;;;;2.83;1.40;;;;;;;15.20;92.57;149901.28;4923175;28;20227;-60
2023/09/20 00:25:47;;;;;;;5.00;1.50;;;;;;;15.13;91.50;149882.56;4921395;28;20332;-60
2023/09/20 00:28:14;;;;;;;1.57;1.27;;;;;;;15.16;92.52;149891.28;4926340;28;20580;-60
2023/09/20 00:30:39;;;;;;;2.87;1.17;;;;;;;15.08;93.00;149871.31;4924258;28;20237;-60
2023/09/20 00:33:07;;;;;;;2.30;1.30;;;;;;;14.99;93.82;149850.09;4923812;29;20231;-59
2023/09/20 00:35:39;;;;;;;3.80;1.27;;;;;;;14.93;93.90;149833.84;4935426;28;20252;-60
2023/09/20 00:38:06;;;;;;;2.03;1.27;;;;;;;14.89;95.32;149825.13;4926288;28;20629;-60
2023/09/20 00:40:39;;;;;;;5.17;1.63;;;;;;;14.83;96.13;149810.13;4923686;28;20229;-60
2023/09/20 00:43:07;;;;;;;3.60;1.50;;;;;;;14.84;95.18;149813.84;4941394;28;20595;-60
2023/09/20 00:45:40;;;;;;;4.27;1.30;;;;;;;14.82;96.93;149807.63;4912964;28;20532;-59
2023/09/20 00:48:09;;;;;;;5.60;1.30;;;;;;;14.84;95.48;149812.63;4924699;29;20682;-59
2023/09/20 00:50:41;;;;;;;2.43;1.40;;;;;;;15.04;94.01;149862.59;4924229;28;20298;-59
2023/09/20 00:53:12;;;;;;;3.97;1.60;;;;;;;15.00;94.14;149852.59;4924012;28;20266;-59
2023/09/20 00:55:40;;;;;;;4.60;1.40;;;;;;;14.96;95.37;149841.31;4925544;28;20314;-59
2023/09/20 00:58:12;;;;;;;3.83;1.40;;;;;;;14.87;95.69;149821.34;4942540;28;20270;-60
2023/09/20 01:00:40;;;;;;;5.40;1.63;;;;;;;14.80;96.07;149803.91;4923727;28;20713;-60
2023/09/20 01:03:09;;;;;;;3.10;1.20;;;;;;;14.95;94.66;149840.09;4928485;28;20228;-61
2023/09/20 01:05:39;;;;;;;4.77;1.37;;;;;;;14.97;94.38;149843.81;4926349;28;20789;-59
2023/09/20 01:08:07;;;;;;;3.43;1.30;;;;;;;15.01;94.02;149853.81;4930441;28;20322;-61
2023/09/20 01:10:38;;;;;;;3.30;1.53;;;;;;;15.09;92.77;149873.81;4938301;28;20279;-61
2023/09/20 01:13:06;;;;;;;5.27;1.50;;;;;;;15.24;93.91;149908.78;4927816;29;20231;-60
2023/09/20 01:15:38;;;;;;;2.07;1.00;;;;;;;15.13;93.42;149883.81;4924125;28;20238;-59
2023/09/20 01:18:07;;;;;;;2.83;1.40;;;;;;;15.04;95.09;149862.59;4930321;28;20234;-60
2023/09/20 01:20:40;;;;;;;3.53;1.20;;;;;;;14.95;95.74;149840.09;4941141;28;20689;-60
2023/09/20 01:23:08;;;;;;;4.37;1.50;;;;;;;14.87;96.76;149820.13;4928015;28;20285;-61
2023/09/20 01:25:39;;;;;;;4.63;2.27;;;;;;;14.81;96.25;149806.41;4926893;28;20257;-61
2023/09/20 01:28:09;;;;;;;4.00;1.50;;;;;;;14.93;96.68;149835.09;4917107;29;20304;-60
2023/09/20 01:30:41;;;;;;;2.90;1.40;;;;;;;14.86;95.89;149818.84;4924917;28;20239;-61
2023/09/20 01:33:09;;;;;;;3.87;1.40;;;;;;;14.84;96.97;149813.84;4928454;28;20225;-60
2023/09/20 01:35:38;;;;;;;3.03;1.30;;;;;;;14.80;95.17;149802.63;4926798;28;20222;-61
2023/09/20 01:38:06;;;;;;;4.93;1.20;;;;;;;15.09;94.73;149873.81;4929828;28;20288;-58
2023/09/20 01:40:39;;;;;;;2.47;1.43;;;;;;;14.90;94.69;149828.84;4926493;28;20222;-60
2023/09/20 01:43:07;;;;;;;2.87;1.20;;;;;;;15.00;95.93;149851.31;4928292;28;20738;-60
2023/09/20 01:45:38;;;;;;;3.37;1.53;;;;;;;14.93;95.65;149833.84;4924984;28;20219;-60
2023/09/20 01:48:08;;;;;;;2.53;1.40;;;;;;;14.81;96.63;149805.13;4927888;29;20245;-60
2023/09/20 01:50:38;;;;;;;1.90;1.20;;;;;;;14.73;97.86;149786.41;4941397;28;20300;-60
2023/09/20 01:53:08;;;;;;;4.20;1.70;;;;;;;14.69;97.28;149777.66;4928000;29;20566;-60
2023/09/20 01:55:42;;;;;;;2.57;1.33;;;;;;;14.66;97.77;149768.91;4925599;28;20245;-60
2023/09/20 01:58:12;;;;;;;5.43;1.57;;;;;;;14.67;97.59;149771.38;4927579;29;20327;-58
2023/09/20 02:00:40;;;;;;;3.50;1.20;;;;;;;14.74;97.05;149790.16;4925200;28;20321;-61
2023/09/20 02:03:09;;;;;;;4.47;1.50;;;;;;;14.80;95.74;149802.63;4927657;29;20241;-60
2023/09/20 02:05:37;;;;;;;2.40;1.50;;;;;;;14.96;95.43;149841.31;4926757;28;20592;-58
2023/09/20 02:08:06;;;;;;;3.77;1.27;;;;;;;15.02;94.75;149856.31;4929557;28;20240;-60
2023/09/20 02:10:39;;;;;;;3.00;1.30;;;;;;;15.09;94.39;149873.81;4917762;28;20240;-61
2023/09/20 02:13:06;;;;;;;2.60;1.20;;;;;;;15.14;94.99;149886.31;4927361;29;20591;-60
2023/09/20 02:15:41;;;;;;;6.43;1.60;;;;;;;15.11;92.84;149877.56;4939685;28;20230;-61
2023/09/20 02:18:08;;;;;;;3.37;1.40;;;;;;;14.98;93.86;149846.31;4929345;28;20298;-60
2023/09/20 02:20:38;;;;;;;5.63;1.73;;;;;;;14.99;94.73;149848.81;4926109;28;20371;-60
2023/09/20 02:23:06;;;;;;;2.27;1.27;;;;;;;15.02;92.77;149857.59;4927843;29;20245;-60
2023/09/20 02:25:40;;;;;;;3.10;1.50;;;;;;;15.03;93.95;149858.81;4913490;28;20234;-58
2023/09/20 02:28:07;;;;;;;3.53;1.77;;;;;;;14.91;94.45;149830.13;4930023;28;20239;-58
2023/09/20 02:30:37;;;;;;;4.93;1.30;;;;;;;14.89;96.87;149826.34;4942136;28;20216;-59
2023/09/20 02:33:05;;;;;;;2.23;1.50;;;;;;;14.80;96.99;149802.63;4927949;28;20241;-59
2023/09/20 02:35:37;;;;;;;2.73;1.03;;;;;;;14.88;93.86;149822.63;4926611;28;20229;-58
2023/09/20 02:38:09;;;;;;;5.93;1.13;;;;;;;15.00;93.58;149852.59;4930183;28;20462;-61
2023/09/20 02:40:37;;;;;;;2.13;1.20;;;;;;;14.99;93.14;149848.81;4927161;28;20245;-59
2023/09/20 02:43:08;;;;;;;3.07;1.40;;;;;;;14.93;94.06;149835.09;4928885;28;20242;-59
2023/09/20 02:45:40;;;;;;;3.63;1.30;;;;;;;15.00;92.59;149851.31;4925456;28;20224;-58
2023/09/20 02:48:07;;;;;;;3.27;1.40;;;;;;;15.12;90.49;149881.31;4926777;29;20234;-61
2023/09/20 02:50:41;;;;;;;3.83;1.80;;;;;;;15.22;89.66;149903.78;4926205;28;20225;-60
2023/09/20 02:53:07;;;;;;;3.37;1.10;;;;;;;15.49;87.38;149969.97;4929023;28;20328;-60
2023/09/20 02:55:40;;;;;;;2.60;1.13;;;;;;;15.45;87.81;149961.25;4927457;28;20276;-60
2023/09/20 02:58:09;;;;;;;1.93;1.23;;;;;;;15.39;89.12;149945.00;4928882;28;20720;-60
2023/09/20 03:00:46;;;;;;;3.40;1.30;;;;;;;15.52;87.71;149977.47;4937513;28;20234;-58
2023/09/20 03:03:15;;;;;;;1.93;1.20;;;;;;;15.55;87.64;149984.97;4937149;28;20238;-59
2023/09/20 03:05:42;;;;;;;3.80;1.30;;;;;;;15.57;88.77;149989.97;4918143;28;20245;-59
2023/09/20 03:08:11;;;;;;;3.97;1.40;;;;;;;15.52;88.19;149976.25;4943583;28;20225;-59
2023/09/20 03:10:41;;;;;;;5.43;1.67;;;;;;;15.53;88.22;149978.75;4924571;28;20656;-59
2023/09/20 03:13:16;;;;;;;2.70;1.20;;;;;;;15.61;88.83;149998.75;4927669;28;20227;-59
2023/09/20 03:15:43;;;;;;;2.93;1.33;;;;;;;15.58;87.63;149991.25;4916829;28;20238;-59
2023/09/20 03:18:13;;;;;;;3.57;1.40;;;;;;;15.68;88.39;150016.22;4917260;28;20681;-59
2023/09/20 03:20:43;;;;;;;3.00;1.43;;;;;;;15.66;88.86;150011.25;4924543;28;20238;-59
2023/09/20 03:23:10;;;;;;;2.33;1.20;;;;;;;15.55;89.88;149984.97;4926312;29;20326;-59
2023/09/20 03:25:41;;;;;;;2.47;1.17;;;;;;;15.42;90.07;149953.75;4928906;28;20226;-59
2023/09/20 03:28:29;;;;;;;1.40;1.23;;;;;;;15.40;90.46;149947.50;4925218;28;20235;-59
2023/09/20 03:33:24;;;;;;;3.27;1.50;;;;;;;15.41;90.87;149951.25;4925617;28;20230;-62
2023/09/20 03:35:51;;;;;;;3.27;1.43;;;;;;;15.37;91.12;149940.03;4932051;28;20371;-61
2023/09/20 03:38:19;;;;;;;2.13;1.30;;;;;;;15.32;92.10;149928.78;4932808;28;20603;-61
2023/09/20 03:40:45;;;;;;;2.67;1.40;;;;;;;15.24;92.70;149910.06;4926743;29;20342;-61
2023/09/20 03:43:13;;;;;;;2.07;1.33;;;;;;;15.13;94.14;149883.81;4912342;28;20250;-61
2023/09/20 03:45:47;;;;;;;4.93;1.40;;;;;;;15.01;94.24;149855.09;4912037;29;20235;-61
2023/09/20 03:48:16;;;;;;;5.10;1.23;;;;;;;14.90;96.58;149827.63;4917735;29;20231;-61
2023/09/20 03:50:45;;;;;;;5.27;1.40;;;;;;;14.84;96.82;149813.84;4915180;28;20243;-61
2023/09/20 03:53:11;;;;;;;3.57;1.37;;;;;;;14.82;96.57;149808.91;4925185;28;20465;-61
2023/09/20 03:55:39;;;;;;;2.53;1.40;;;;;;;14.83;97.07;149810.13;4914776;28;20309;-61
2023/09/20 03:58:07;;;;;;;1.90;1.13;;;;;;;14.79;96.33;149800.13;4931036;28;20242;-61
2023/09/20 04:00:38;;;;;;;2.73;1.40;;;;;;;14.87;95.81;149820.13;4915419;28;20571;-62
2023/09/20 04:03:08;;;;;;;6.90;1.83;;;;;;;14.88;95.29;149822.63;4917967;28;20692;-61
2023/09/20 04:05:38;;;;;;;2.70;1.10;;;;;;;14.98;93.68;149846.31;4913159;28;20226;-61
2023/09/20 04:08:06;;;;;;;2.73;1.27;;;;;;;15.17;91.33;149892.56;4914859;28;20324;-61
2023/09/20 04:10:37;;;;;;;3.23;1.40;;;;;;;15.20;91.50;149901.28;4928677;28;20234;-61
2023/09/20 04:13:04;;;;;;;3.40;1.40;;;;;;;15.26;90.95;149913.78;4913033;28;20243;-61
2023/09/20 04:15:38;;;;;;;2.13;1.30;;;;;;;15.35;90.24;149936.25;4917707;28;20293;-61
2023/09/20 04:18:08;;;;;;;3.20;1.30;;;;;;;15.37;89.74;149940.03;4913856;28;20236;-61
2023/09/20 04:20:38;;;;;;;3.23;1.43;;;;;;;15.39;89.89;149945.00;4914113;28;20231;-61
2023/09/20 04:23:05;;;;;;;3.03;1.30;;;;;;;15.41;89.68;149951.25;4931158;28;20235;-61
2023/09/20 04:25:37;;;;;;;5.90;1.20;;;;;;;15.42;89.04;149952.50;4914624;28;20223;-61
2023/09/20 04:28:04;;;;;;;3.30;1.60;;;;;;;15.38;89.29;149943.75;4932946;28;20314;-61
2023/09/20 04:30:38;;;;;;;2.27;1.47;;;;;;;15.40;88.25;149947.50;4931946;28;20253;-61
2023/09/20 04:33:10;;;;;;;3.70;1.40;;;;;;;15.38;89.81;149942.50;4934594;28;20241;-62
2023/09/20 04:35:41;;;;;;;4.43;1.27;;;;;;;15.36;89.64;149938.78;4931614;28;20728;-61
2023/09/20 04:38:12;;;;;;;3.17;1.73;;;;;;;15.39;88.72;149946.25;4917890;28;20326;-61
2023/09/20 04:40:39;;;;;;;6.87;1.73;;;;;;;15.43;88.35;149954.97;4915708;28;20269;-61
2023/09/20 04:43:06;;;;;;;4.40;1.60;;;;;;;15.42;89.65;149953.75;4932413;28;20646;-61
2023/09/20 04:45:38;;;;;;;3.07;1.60;;;;;;;15.20;91.38;149901.28;4916026;28;20306;-61
2023/09/20 04:48:06;;;;;;;2.43;1.43;;;;;;;15.02;93.37;149857.59;4932070;28;20969;-61
2023/09/20 04:50:39;;;;;;;2.70;1.47;;;;;;;14.91;95.05;149831.34;4916014;28;20232;-61
2023/09/20 04:53:06;;;;;;;4.10;1.30;;;;;;;14.82;96.36;149807.63;4934925;28;20310;-61
2023/09/20 04:55:38;;;;;;;1.93;1.20;;;;;;;14.69;97.22;149777.66;4916669;28;20707;-61
2023/09/20 04:58:06;;;;;;;3.47;1.50;;;;;;;14.61;99.11;149757.63;4920911;28;20237;-61
2023/09/20 05:00:38;;;;;;;4.17;1.80;;;;;;;14.51;99.69;149733.94;4915761;28;20252;-61
2023/09/20 05:03:06;;;;;;;3.80;1.53;;;;;;;14.50;100.00;149730.16;4918885;28;20231;-61
2023/09/20 05:05:38;;;;;;;3.80;1.70;;;;;;;14.43;100.00;149713.94;4916206;28;20546;-61
2023/09/20 05:08:06;;;;;;;4.50;1.50;;;;;;;14.39;100.00;149703.97;4919857;28;20699;-62
2023/09/20 05:10:38;;;;;;;3.23;1.13;;;;;;;14.35;100.00;149695.19;4929987;28;20233;-61
2023/09/20 05:13:07;;;;;;;6.57;1.43;;;;;;;14.30;100.00;149683.97;4920366;29;20240;-61
2023/09/20 05:15:37;;;;;;;3.20;1.50;;;;;;;14.28;100.00;149677.75;4916876;28;20589;-62
2023/09/20 05:18:06;;;;;;;3.80;1.80;;;;;;;14.25;100.00;149670.28;4931466;28;20231;-62
2023/09/20 05:20:39;;;;;;;4.00;1.50;;;;;;;14.25;100.00;149670.28;4931483;28;20227;-62
2023/09/20 05:23:06;;;;;;;3.73;1.67;;;;;;;14.25;100.00;149670.28;4933134;28;20238;-62
2023/09/20 05:25:37;;;;;;;4.17;1.77;;;;;;;14.27;100.00;149676.50;4932360;28;20307;-62
2023/09/20 05:28:04;;;;;;;5.07;1.67;;;;;;;14.29;100.00;149681.47;4918111;28;20233;-62
2023/09/20 05:30:38;;;;;;;4.00;1.67;;;;;;;14.32;100.00;149688.97;4916563;28;20234;-62
2023/09/20 05:33:07;;;;;;;6.03;1.67;;;;;;;14.34;100.00;149691.47;4936554;28;20312;-62
2023/09/20 05:35:39;;;;;;;4.53;1.63;;;;;;;14.40;100.00;149706.47;4918042;28;20709;-61
2023/09/20 05:38:06;;;;;;;4.60;1.80;;;;;;;14.43;100.00;149715.16;4919154;28;20248;-62
2023/09/20 05:40:37;;;;;;;2.90;1.23;;;;;;;14.44;100.00;149717.66;4917338;28;20647;-64
2023/09/20 05:43:06;;;;;;;3.77;1.50;;;;;;;14.49;100.00;149727.66;4920186;28;20321;-61
2023/09/20 05:45:37;;;;;;;6.73;1.57;;;;;;;14.56;100.00;149745.13;4916855;28;20239;-61
2023/09/20 05:48:04;;;;;;;3.83;1.90;;;;;;;14.57;100.00;149747.63;4918040;28;20230;-62
2023/09/20 05:50:40;;;;;;;4.73;1.50;;;;;;;14.62;100.00;149760.13;4915071;28;20310;-62
2023/09/20 05:53:11;;;;;;;3.83;1.50;;;;;;;14.66;100.00;149770.13;4917289;28;20859;-62
2023/09/20 05:55:38;;;;;;;5.30;1.50;;;;;;;14.70;100.00;149780.16;4913641;28;21254;-61
2023/09/20 05:58:05;;;;;;;6.73;1.73;;;;;;;14.74;100.00;149788.91;4919904;28;20233;-62
2023/09/20 06:00:56;;;;;;;2.27;1.30;;;;;;;14.76;100.00;149795.13;4918014;28;20366;-61
2023/09/20 06:03:22;;;;;;;2.50;1.80;;;;;;;14.84;100.00;149812.63;4914627;28;20234;-61
2023/09/20 06:05:50;;;;;;;4.13;1.70;;;;;;;14.95;100.00;149840.09;4919961;28;20615;-61
2023/09/20 06:08:17;;;;;;;2.53;1.60;;;;;;;15.02;100.00;149857.59;4919502;28;20313;-63
2023/09/20 06:10:45;;;;;;;4.00;1.50;;;;;;;15.21;97.45;149902.56;4916104;28;20297;-61
2023/09/20 06:13:11;;;;;;;3.03;1.90;;;;;;;15.47;92.20;149964.97;4917899;28;20294;-61
2023/09/20 06:15:39;;;;;;;5.93;1.23;;;;;;;15.71;91.44;150022.47;4914991;28;20368;-61
2023/09/20 06:18:06;;;;;;;1.73;1.20;;;;;;;15.92;90.61;150073.72;4918407;28;20227;-61
2023/09/20 06:20:45;;;;;;;3.83;1.67;;;;;;;16.07;90.26;150111.22;4919340;28;20237;-61
2023/09/20 06:23:14;;;;;;;5.20;1.50;;;;;;;16.20;90.58;150142.50;4919428;28;20320;-61
2023/09/20 06:25:41;;;;;;;1.90;1.50;;;;;;;16.23;92.31;150148.72;4917098;28;20226;-62
2023/09/20 06:28:09;;;;;;;2.07;1.13;;;;;;;16.32;88.25;150170.00;4918751;28;20539;-61
2023/09/20 06:30:37;;;;;;;2.23;1.40;;;;;;;16.34;89.05;150175.00;4916169;28;20219;-62
2023/09/20 06:33:04;;;;;;;3.10;1.40;;;;;;;16.28;91.33;150160.00;4920395;28;20238;-62
2023/09/20 06:35:40;;;;;;;2.77;1.60;;;;;;;16.25;91.76;150152.50;4914820;28;20235;-61
2023/09/20 06:38:07;;;;;;;2.40;1.40;;;;;;;16.34;86.03;150176.22;4916712;28;20263;-62
2023/09/20 06:40:39;;;;;;;3.50;1.43;;;;;;;16.40;88.94;150188.72;4915436;28;21041;-61
2023/09/20 06:43:07;;;;;;;2.77;1.30;;;;;;;16.43;84.94;150196.22;4917605;28;20243;-62
2023/09/20 06:45:37;;;;;;;2.83;1.60;;;;;;;16.45;85.88;150202.44;4913852;28;20242;-62
2023/09/20 06:48:05;;;;;;;2.60;1.27;;;;;;;16.49;87.30;150212.44;4918512;28;20583;-61
2023/09/20 06:50:37;;;;;;;4.93;1.70;;;;;;;16.46;88.27;150204.94;4916833;28;20239;-61
2023/09/20 06:53:04;;;;;;;1.93;1.30;;;;;;;16.42;91.16;150193.72;4916094;28;20324;-62
2023/09/20 06:55:38;;;;;;;5.50;1.60;;;;;;;16.45;91.93;150201.22;4919132;28;20329;-61
2023/09/20 06:58:07;;;;;;;6.57;1.77;;;;;;;16.46;90.20;150203.72;4922403;28;20311;-62
2023/09/20 07:00:37;;;;;;;4.43;1.40;;;;;;;16.49;92.46;150211.22;4916826;28;20277;-61
2023/09/20 07:03:05;;;;;;;8.13;1.90;;;;;;;16.57;92.00;150231.22;4916854;28;20245;-61
2023/09/20 07:05:37;;;;;;;3.20;1.90;;;;;;;16.67;91.71;150254.97;4914281;28;20231;-61
2023/09/20 07:08:04;;;;;;;4.57;1.60;;;;;;;16.71;92.28;150263.72;4918639;28;20250;-61
2023/09/20 07:10:41;;;;;;;3.13;1.70;;;;;;;16.70;93.88;150261.22;4915469;28;20298;-62
2023/09/20 07:13:09;;;;;;;4.70;1.97;;;;;;;16.79;94.92;150283.75;4916461;28;20257;-61
2023/09/20 07:15:39;;;;;;;6.37;2.33;;;;;;;16.89;93.25;150308.75;4914859;28;20256;-61
2023/09/20 07:18:11;;;;;;;7.23;2.47;;;;;;;16.92;91.64;150314.97;4917502;28;20699;-62
2023/09/20 07:20:40;;;;;;;6.87;2.70;;;;;;;17.00;92.43;150335.03;4916376;28;20857;-61
2023/09/20 07:23:09;;;;;;;6.80;2.53;;;;;;;17.11;92.02;150362.53;4917913;28;20225;-61
2023/09/20 07:25:40;;;;;;;5.97;2.80;;;;;;;17.22;90.75;150387.56;4917790;28;20740;-61
2023/09/20 07:28:09;;;;;;;7.87;2.40;;;;;;;17.25;89.58;150395.06;4919011;28;20243;-61
2023/09/20 07:30:44;;;;;;;4.77;2.63;;;;;;;17.26;89.86;150398.78;4913148;28;20224;-62
2023/09/20 07:33:12;;;;;;;6.43;2.43;;;;;;;17.35;89.94;150418.81;4918194;28;20231;-61
2023/09/20 07:35:46;;;;;;;5.77;2.43;;;;;;;17.41;90.16;150433.81;4915307;28;20246;-61
2023/09/20 07:38:18;;;;;;;8.87;2.57;;;;;;;17.37;90.04;150425.09;4917610;28;20239;-62
2023/09/20 07:40:50;;;;;;;4.67;2.70;;;;;;;17.33;90.55;150415.09;4916948;28;20247;-61
2023/09/20 07:43:18;;;;;;;4.83;2.47;;;;;;;17.35;91.75;150418.81;4914970;28;20301;-62
2023/09/20 07:45:45;;;;;;;6.17;2.43;;;;;;;17.24;90.74;150392.56;4917352;28;20788;-62
2023/09/20 07:48:13;;;;;;;5.50;2.40;;;;;;;17.22;91.00;150387.56;4917910;28;20250;-61
2023/09/20 07:50:41;;;;;;;8.60;2.23;;;;;;;17.20;92.07;150382.56;4915700;28;20219;-61
2023/09/20 07:53:10;;;;;;;4.90;2.10;;;;;;;17.16;94.33;150372.56;4917959;28;20319;-62
2023/09/20 07:55:45;;;;;;;4.53;2.50;;;;;;;17.15;95.38;150370.06;4914392;28;20425;-62
2023/09/20 07:58:14;;;;;;;8.67;2.23;;;;;;;17.12;96.56;150363.78;4917411;28;20233;-61
2023/09/20 08:00:44;;;;;;;6.33;2.30;;;;;;;17.12;96.19;150363.78;4913993;28;20249;-62
2023/09/20 08:03:10;;;;;;;4.63;2.13;;;;;;;17.16;97.33;150372.56;4913943;28;20224;-62
2023/09/20 08:05:38;;;;;;;3.77;2.37;;;;;;;17.21;97.47;150385.06;4914690;28;20234;-61
2023/09/20 08:08:06;;;;;;;6.10;1.70;;;;;;;17.28;97.59;150402.56;4924159;28;20569;-63
2023/09/20 08:10:38;;;;;;;2.87;1.60;;;;;;;17.38;98.38;150427.59;4912203;28;20235;-66
2023/09/20 08:13:06;;;;;;;7.73;2.23;;;;;;;17.46;96.98;150446.31;4916162;28;20228;-62
2023/09/20 08:15:42;;;;;;;6.20;1.93;;;;;;;17.52;98.17;150461.34;4911043;28;20729;-62
2023/09/20 08:20:53;;;;;;;4.00;2.00;;;;;;;17.71;96.47;150506.38;4913474;28;20239;-63
2023/09/20 09:01:47;;;;;;;2.47;1.70;;;;;;;19.62;76.15;150969.53;4911234;28;20238;-62
2023/09/20 09:04:19;;;;;;;6.17;2.00;;;;;;;19.68;76.31;150983.28;4916970;28;20324;-61
2023/09/20 09:06:46;;;;;;;2.23;1.60;;;;;;;19.80;75.74;151012.13;4914670;28;20745;-61
2023/09/20 09:09:13;;;;;;;4.30;1.90;;;;;;;19.91;77.65;151038.47;4917169;28;20303;-62
2023/09/20 09:11:40;;;;;;;3.40;1.80;;;;;;;19.97;77.27;151053.50;4913877;28;20226;-61
2023/09/20 09:14:07;;;;;;;3.30;1.90;;;;;;;20.01;76.80;151062.28;4918234;28;20282;-61
2023/09/20 09:16:34;;;;;;;3.37;1.90;;;;;;;20.08;73.33;151079.81;4917147;28;20238;-61
2023/09/20 09:19:01;;;;;;;3.53;1.70;;;;;;;20.17;72.26;151102.31;4922281;28;20229;-61
2023/09/20 09:21:30;;;;;;;3.77;1.90;;;;;;;20.19;72.27;151106.09;4920170;28;20706;-61
2023/09/20 09:23:57;;;;;;;3.20;1.87;;;;;;;20.22;73.12;151113.63;4918863;28;20320;-61
2023/09/20 09:26:25;;;;;;;4.43;1.60;;;;;;;20.10;74.16;151083.56;4920344;28;20231;-62
2023/09/20 09:28:51;;;;;;;4.07;2.20;;;;;;;20.08;75.21;151079.81;4923675;28;20238;-61
2023/09/20 09:31:18;;;;;;;3.93;2.10;;;;;;;20.19;74.46;151107.34;4922686;28;20243;-62
2023/09/20 09:33:45;;;;;;;2.27;1.60;;;;;;;20.29;73.67;151131.16;4918671;28;20243;-61
2023/09/20 09:36:13;;;;;;;5.50;2.03;;;;;;;20.40;75.12;151156.22;4920403;28;20723;-62
2023/09/20 09:38:41;;;;;;;4.60;2.00;;;;;;;20.43;73.04;151163.75;4915237;28;20277;-61
2023/09/20 09:41:08;;;;;;;5.27;1.50;;;;;;;20.53;68.49;151187.53;4922327;28;20231;-62
2023/09/20 09:43:36;;;;;;;4.53;1.60;;;;;;;20.47;67.29;151173.78;4916555;28;21286;-62
2023/09/20 09:46:08;;;;;;;2.60;1.40;;;;;;;20.57;65.43;151198.84;4934383;23;20325;-61
2023/09/20 09:48:37;;;;;;;3.10;1.43;;;;;;;20.62;65.98;151210.09;4919015;28;20278;-60
2023/09/20 09:51:06;;;;;;;2.23;1.23;;;;;;;20.72;64.88;151235.16;4920744;28;20242;-60
2023/09/20 09:53:35;;;;;;;3.50;1.50;;;;;;;20.84;60.90;151262.78;4916793;28;20241;-60
2023/09/20 09:56:06;;;;;;;2.70;1.30;;;;;;;20.88;61.45;151272.78;4918673;28;20233;-59
2023/09/20 09:58:33;;;;;;;2.27;1.47;;;;;;;20.94;62.44;151287.84;4916552;28;20230;-60
2023/09/20 10:01:05;;;;;;;3.13;1.20;;;;;;;20.98;60.42;151297.88;4916801;28;20273;-60
2023/09/20 10:03:34;;;;;;;3.50;1.90;;;;;;;21.08;58.26;151321.66;4915578;28;20237;-60
2023/09/20 10:06:09;;;;;;;2.50;1.30;;;;;;;21.03;59.33;151309.13;4919186;28;20302;-60
2023/09/20 10:08:39;;;;;;;4.33;1.30;;;;;;;21.11;57.68;151327.94;4916162;28;20244;-60
2023/09/20 10:11:08;;;;;;;2.77;1.40;;;;;;;21.11;59.60;151327.94;4918063;28;20225;-60
2023/09/20 10:13:36;;;;;;;2.97;1.43;;;;;;;21.21;58.39;151352.97;4918650;28;20229;-60
2023/09/20 10:16:10;;;;;;;3.50;1.40;;;;;;;21.32;60.18;151380.56;4918293;28;20231;-60
2023/09/20 10:18:51;;;;;;;3.43;1.33;;;;;;;21.33;57.50;151383.06;4918830;28;20229;-60
2023/09/20 10:21:21;;;;;;;2.73;1.43;;;;;;;21.38;59.78;151395.59;4919087;28;20243;-60
2023/09/20 10:23:48;;;;;;;3.53;1.30;;;;;;;21.43;58.16;151405.63;4917701;28;20236;-60
2023/09/20 10:26:17;;;;;;;2.00;1.20;;;;;;;21.42;59.39;151404.41;4920283;28;20247;-60
2023/09/20 10:28:45;;;;;;;4.33;1.50;;;;;;;21.43;59.94;151405.63;4916551;28;20247;-60
2023/09/20 10:31:15;;;;;;;3.10;1.43;;;;;;;21.48;58.02;151419.44;4916938;28;20239;-61
2023/09/20 10:33:46;;;;;;;3.43;1.40;;;;;;;21.57;56.83;151440.72;4918959;28;20220;-61
2023/09/20 10:36:18;;;;;;;3.43;1.50;;;;;;;21.63;56.35;151454.59;4918696;28;20233;-60
2023/09/20 10:38:46;;;;;;;2.83;1.30;;;;;;;21.66;58.11;151463.34;4917376;28;20233;-60
2023/09/20 10:41:13;;;;;;;3.57;1.40;;;;;;;21.73;59.43;151479.63;4920314;28;20230;-60
2023/09/20 10:43:48;;;;;;;2.27;1.50;;;;;;;21.71;58.49;151474.66;4915030;28;20725;-60
2023/09/20 10:46:22;;;;;;;1.70;1.20;;;;;;;21.79;58.18;151494.69;4917751;28;20321;-60
2023/09/20 10:48:50;;;;;;;2.90;1.30;;;;;;;21.88;57.37;151516.00;4916935;28;20228;-60
2023/09/20 10:51:43;;;;;;;3.00;1.77;;;;;;;21.87;57.99;151513.50;4916958;28;20247;-60
2023/09/20 10:54:23;;;;;;;3.17;1.40;;;;;;;21.90;57.58;151519.75;4916287;28;20691;-60
2023/09/20 10:57:05;;;;;;;1.90;1.47;;;;;;;21.92;56.78;151524.78;4916144;28;20246;-60
2023/09/20 10:59:34;;;;;;;3.20;1.40;;;;;;;21.99;57.19;151541.09;4916205;28;20249;-60
2023/09/20 11:02:08;;;;;;;3.47;1.50;;;;;;;22.09;55.56;151567.41;4918881;28;20239;-60
2023/09/20 11:04:36;;;;;;;3.80;1.67;;;;;;;22.06;56.88;151559.88;4913782;28;20228;-60
2023/09/20 11:07:03;;;;;;;4.27;1.70;;;;;;;22.21;54.96;151596.28;4917772;28;20225;-63
2023/09/20 11:09:33;;;;;;;4.53;1.80;;;;;;;22.07;56.04;151561.16;4916917;28;20236;-62
2023/09/20 11:12:04;;;;;;;3.83;1.60;;;;;;;22.07;55.42;151562.41;4919561;28;20326;-61
2023/09/20 11:14:37;;;;;;;2.87;1.30;;;;;;;22.20;55.40;151593.78;4915404;28;20278;-61
2023/09/20 11:17:05;;;;;;;3.77;1.53;;;;;;;22.20;54.86;151593.78;4917352;28;20238;-61
2023/09/20 11:19:32;;;;;;;3.03;1.50;;;;;;;22.24;53.95;151603.81;4915761;28;20775;-61
2023/09/20 11:21:59;;;;;;;7.80;1.70;;;;;;;22.16;54.71;151582.47;4931447;28;20680;-62
2023/09/20 11:24:27;;;;;;;2.40;1.70;;;;;;;22.17;54.30;151586.25;4916064;28;21011;-62
2023/09/20 11:26:55;;;;;;;5.27;1.80;;;;;;;22.34;55.85;151627.63;4917257;28;20237;-60
2023/09/20 11:29:22;;;;;;;3.83;1.93;;;;;;;22.30;54.39;151617.59;4918392;28;20245;-61
2023/09/20 11:31:52;;;;;;;4.20;1.33;;;;;;;22.49;52.74;151662.78;4914968;28;20232;-61
2023/09/20 11:34:19;;;;;;;3.80;1.47;;;;;;;22.60;52.91;151689.09;4918342;28;20236;-61
2023/09/20 11:36:47;;;;;;;3.83;2.00;;;;;;;22.58;53.08;151684.09;4914464;28;20230;-61
2023/09/20 11:39:17;;;;;;;3.00;1.50;;;;;;;22.69;51.46;151711.69;4916147;28;20705;-61
2023/09/20 11:41:44;;;;;;;3.33;1.50;;;;;;;22.77;52.87;151731.78;4915322;28;20632;-61
2023/09/20 11:44:11;;;;;;;2.27;1.60;;;;;;;22.75;52.42;151726.75;4918104;28;20248;-62
2023/09/20 11:46:38;;;;;;;2.67;1.50;;;;;;;22.85;51.58;151751.84;4927567;28;20244;-59
2023/09/20 11:49:08;;;;;;;3.40;1.37;;;;;;;22.87;52.56;151755.59;4920553;28;20258;-59
2023/09/20 11:51:37;;;;;;;2.67;1.90;;;;;;;22.89;53.13;151760.59;4915983;28;20230;-59
2023/09/20 11:54:10;;;;;;;5.50;1.90;;;;;;;22.87;52.24;151755.59;4918407;28;20224;-59
2023/09/20 11:56:37;;;;;;;3.30;1.70;;;;;;;23.02;52.56;151792.00;4915057;28;20696;-59
2023/09/20 11:59:09;;;;;;;4.47;1.50;;;;;;;23.12;52.21;151815.81;4917417;28;20286;-59
2023/09/20 12:01:41;;;;;;;3.73;1.93;;;;;;;23.08;51.94;151805.78;4913287;28;20322;-59
2023/09/20 12:04:09;;;;;;;2.10;1.43;;;;;;;22.98;52.56;151781.94;4915451;28;20709;-59
2023/09/20 12:06:36;;;;;;;4.63;2.00;;;;;;;23.05;51.40;151799.53;4912225;28;20616;-59
2023/09/20 12:09:04;;;;;;;2.83;1.50;;;;;;;23.09;51.67;151808.28;4915721;28;20235;-59
2023/09/20 12:11:31;;;;;;;4.37;1.90;;;;;;;23.07;51.82;151803.25;4912439;28;20243;-59
2023/09/20 12:13:58;;;;;;;2.03;1.53;;;;;;;23.18;52.77;151829.63;4916972;28;20229;-59
2023/09/20 12:16:25;;;;;;;2.90;1.60;;;;;;;23.24;51.22;151844.75;4914900;28;20236;-59
2023/09/20 12:18:54;;;;;;;3.20;1.70;;;;;;;23.36;51.65;151873.59;4917514;28;20599;-59